createdAt,value
2018-06-05T00:00:45.933Z,9.73
2018-06-05T00:03:15.034Z,9.30
2018-06-05T00:05:44.801Z,10.10
2018-06-05T00:08:13.927Z,10.00
2018-06-05T00:10:43.099Z,10.20
2018-06-05T00:13:12.417Z,10.27
2018-06-05T00:15:41.588Z,10.17
2018-06-05T00:18:12.165Z,9.13
2018-06-05T00:20:41.345Z,10.23
2018-06-05T00:23:10.670Z,9.93
2018-06-05T00:25:40.261Z,9.47
2018-06-05T00:28:09.491Z,9.20
2018-06-05T00:30:38.633Z,9.07
2018-06-05T00:33:07.756Z,8.93
2018-06-05T00:35:36.958Z,9.73
2018-06-05T00:38:06.047Z,10.43
2018-06-05T00:40:35.205Z,10.20
2018-06-05T00:43:04.332Z,9.80
2018-06-05T00:45:33.562Z,9.07
2018-06-05T00:48:02.704Z,10.07
2018-06-05T00:50:31.853Z,9.07
2018-06-05T00:53:01.740Z,8.43
2018-06-05T00:55:30.889Z,9.07
2018-06-05T00:58:00.052Z,9.17
2018-06-05T01:00:29.341Z,9.23
2018-06-05T01:02:59.314Z,9.10
2018-06-05T01:05:28.453Z,9.20
2018-06-05T01:07:57.517Z,9.40
2018-06-05T01:10:26.689Z,9.17
2018-06-05T01:12:55.818Z,10.13
2018-06-05T01:15:25.093Z,9.73
2018-06-05T01:17:54.222Z,9.70
2018-06-05T01:20:23.562Z,9.53
2018-06-05T01:22:52.898Z,9.00
2018-06-05T01:25:22.141Z,9.60
2018-06-05T01:27:51.353Z,9.57
2018-06-05T01:30:20.482Z,9.48
2018-06-05T01:32:50.224Z,9.20
2018-06-05T01:35:19.392Z,8.95
2018-06-05T01:37:48.520Z,9.03
2018-06-05T01:40:17.631Z,9.10
2018-06-05T01:42:46.754Z,9.37
2018-06-05T01:45:15.842Z,9.63
2018-06-05T01:47:44.917Z,10.40
2018-06-05T01:50:14.045Z,9.18
2018-06-05T01:52:43.216Z,10.27
2018-06-05T01:55:12.341Z,10.58
2018-06-05T01:57:41.449Z,10.03
2018-06-05T02:00:10.533Z,10.45
2018-06-05T02:02:39.602Z,9.83
2018-06-05T02:05:08.933Z,9.00
2018-06-05T02:07:38.012Z,9.00
2018-06-05T02:10:07.134Z,9.53
2018-06-05T02:12:36.287Z,9.30
2018-06-05T02:15:05.936Z,9.70
2018-06-05T02:17:35.012Z,9.83
2018-06-05T02:20:04.166Z,10.10
2018-06-05T02:22:33.552Z,10.20
2018-06-05T02:25:02.689Z,11.30
2018-06-05T02:27:31.791Z,10.07
2018-06-05T02:30:00.895Z,10.50
2018-06-05T02:32:29.955Z,10.07
2018-06-05T02:34:59.087Z,10.43
2018-06-05T02:37:28.532Z,10.13
2018-06-05T02:39:57.629Z,10.00
2018-06-05T02:42:26.720Z,10.88
2018-06-05T02:44:55.934Z,10.30
2018-06-05T02:47:25.024Z,9.93
2018-06-05T02:49:54.092Z,9.63
2018-06-05T02:52:23.266Z,9.65
2018-06-05T02:54:52.362Z,9.80
2018-06-05T02:57:21.671Z,9.70
2018-06-05T02:59:50.712Z,10.00
2018-06-05T03:02:19.809Z,9.33
2018-06-05T03:04:48.883Z,10.57
2018-06-05T03:07:17.991Z,10.05
2018-06-05T03:09:47.073Z,10.40
2018-06-05T03:12:16.174Z,9.60
2018-06-05T03:14:45.263Z,10.40
2018-06-05T03:17:14.358Z,9.77
2018-06-05T03:19:43.465Z,9.10
2018-06-05T03:22:12.643Z,9.33
2018-06-05T03:24:41.833Z,10.73
2018-06-05T03:27:10.934Z,9.43
2018-06-05T03:29:40.098Z,9.50
2018-06-05T03:32:09.169Z,9.63
2018-06-05T03:34:38.274Z,10.47
2018-06-05T03:37:07.439Z,10.20
2018-06-05T03:39:36.639Z,10.00
2018-06-05T03:42:05.725Z,9.30
2018-06-05T03:44:36.356Z,10.40
2018-06-05T03:47:06.408Z,9.93
2018-06-05T03:49:41.774Z,10.17
2018-06-05T03:52:11.049Z,9.95
2018-06-05T03:54:40.734Z,9.20
2018-06-05T03:57:09.866Z,9.78
2018-06-05T03:59:39.533Z,9.15
2018-06-05T04:02:08.615Z,10.23
2018-06-05T04:04:37.745Z,10.00
2018-06-05T04:07:06.914Z,10.07
2018-06-05T04:09:36.037Z,10.63
2018-06-05T04:12:06.043Z,9.53
2018-06-05T04:14:35.137Z,10.43
2018-06-05T04:17:04.257Z,10.10
2018-06-05T04:19:33.412Z,10.37
2018-06-05T04:22:02.462Z,10.90
2018-06-05T04:24:31.625Z,10.30
2018-06-05T04:27:00.744Z,11.33
2018-06-05T04:29:29.816Z,11.27
2018-06-05T04:31:58.944Z,11.40
2018-06-05T04:34:28.021Z,10.50
2018-06-05T04:36:57.182Z,11.73
2018-06-05T04:39:26.396Z,13.23
2018-06-05T04:41:55.510Z,16.40
2018-06-05T04:44:24.642Z,11.80
2018-06-05T04:46:53.850Z,13.90
2018-06-05T04:49:22.931Z,11.80
2018-06-05T04:51:52.038Z,12.90
2018-06-05T04:54:21.100Z,12.73
2018-06-05T04:56:50.238Z,12.73
2018-06-05T04:59:19.313Z,12.65
2018-06-05T05:01:48.441Z,13.07
2018-06-05T05:04:18.270Z,13.10
2018-06-05T05:06:47.557Z,13.63
2018-06-05T05:09:19.602Z,12.30
2018-06-05T05:11:48.836Z,12.83
2018-06-05T05:14:18.992Z,12.60
2018-06-05T05:16:48.182Z,12.53
2018-06-05T05:19:17.320Z,12.33
2018-06-05T05:21:46.875Z,11.90
2018-06-05T05:24:16.185Z,12.85
2018-06-05T05:26:45.359Z,12.20
2018-06-05T05:29:14.420Z,12.63
2018-06-05T05:31:43.518Z,13.50
2018-06-05T05:34:12.585Z,13.90
2018-06-05T05:36:41.664Z,14.27
2018-06-05T05:39:11.470Z,15.38
2018-06-05T05:41:40.631Z,14.73
2018-06-05T05:44:10.830Z,15.40
2018-06-05T05:46:39.955Z,14.53
2018-06-05T05:49:09.101Z,14.78
2018-06-05T05:51:38.443Z,14.60
2018-06-05T05:54:09.361Z,14.83
